sensor_id;sensor_type;location;lat;lon;timestamp;P1;durP1;ratioP1;P2;durP2;ratioP2
5085;SDS011;4715;51.660;7.082;2022-12-29T00:00:45;1.70;;;1.60;;
5085;SDS011;4715;51.660;7.082;2022-12-29T00:03:09;1.80;;;1.70;;
5085;SDS011;4715;51.660;7.082;2022-12-29T00:05:32;2.20;;;2.00;;
5085;SDS011;4715;51.660;7.082;2022-12-29T00:07:54;1.90;;;1.77;;
5085;SDS011;4715;51.660;7.082;2022-12-29T00:10:16;2.67;;;1.83;;
5085;SDS011;4715;51.660;7.082;2022-12-29T00:12:38;3.33;;;1.80;;
5085;SDS011;4715;51.660;7.082;2022-12-29T00:15:18;1.23;;;1.13;;
5085;SDS011;4715;51.660;7.082;2022-12-29T00:17:58;3.43;;;1.40;;
5085;SDS011;4715;51.660;7.082;2022-12-29T00:20:21;1.60;;;1.50;;
5085;SDS011;4715;51.660;7.082;2022-12-29T00:23:00;1.67;;;1.57;;
5085;SDS011;4715;51.660;7.082;2022-12-29T00:25:39;1.87;;;1.77;;
5085;SDS011;4715;51.660;7.082;2022-12-29T00:28:18;1.67;;;1.57;;
5085;SDS011;4715;51.660;7.082;2022-12-29T00:30:58;1.67;;;1.57;;
5085;SDS011;4715;51.660;7.082;2022-12-29T00:33:38;2.30;;;2.00;;
5085;SDS011;4715;51.660;7.082;2022-12-29T00:36:17;1.57;;;1.47;;
5085;SDS011;4715;51.660;7.082;2022-12-29T00:38:45;1.97;;;1.87;;
5085;SDS011;4715;51.660;7.082;2022-12-29T00:41:28;1.87;;;1.77;;
5085;SDS011;4715;51.660;7.082;2022-12-29T00:44:08;1.50;;;1.40;;
5085;SDS011;4715;51.660;7.082;2022-12-29T00:46:31;1.73;;;1.63;;
5085;SDS011;4715;51.660;7.082;2022-12-29T00:48:55;2.10;;;2.00;;
5085;SDS011;4715;51.660;7.082;2022-12-29T00:51:36;1.70;;;1.60;;
5085;SDS011;4715;51.660;7.082;2022-12-29T00:53:58;1.80;;;1.70;;
5085;SDS011;4715;51.660;7.082;2022-12-29T00:56:20;1.77;;;1.67;;
5085;SDS011;4715;51.660;7.082;2022-12-29T00:58:42;1.83;;;1.50;;
5085;SDS011;4715;51.660;7.082;2022-12-29T01:01:05;1.77;;;1.67;;
5085;SDS011;4715;51.660;7.082;2022-12-29T01:03:29;1.60;;;1.40;;
5085;SDS011;4715;51.660;7.082;2022-12-29T01:05:51;1.50;;;1.40;;
5085;SDS011;4715;51.660;7.082;2022-12-29T01:08:15;2.13;;;1.70;;
5085;SDS011;4715;51.660;7.082;2022-12-29T01:10:37;2.43;;;1.40;;
5085;SDS011;4715;51.660;7.082;2022-12-29T01:12:59;1.60;;;1.50;;
5085;SDS011;4715;51.660;7.082;2022-12-29T01:15:24;1.40;;;1.30;;
5085;SDS011;4715;51.660;7.082;2022-12-29T01:17:47;1.50;;;1.40;;
5085;SDS011;4715;51.660;7.082;2022-12-29T01:20:09;2.50;;;1.30;;
5085;SDS011;4715;51.660;7.082;2022-12-29T01:22:32;1.63;;;1.53;;
5085;SDS011;4715;51.660;7.082;2022-12-29T01:24:58;1.73;;;1.63;;
5085;SDS011;4715;51.660;7.082;2022-12-29T01:27:20;1.57;;;1.47;;
5085;SDS011;4715;51.660;7.082;2022-12-29T01:29:43;2.00;;;1.60;;
5085;SDS011;4715;51.660;7.082;2022-12-29T01:32:05;6.87;;;1.40;;
5085;SDS011;4715;51.660;7.082;2022-12-29T01:34:27;1.53;;;1.43;;
5085;SDS011;4715;51.660;7.082;2022-12-29T01:36:49;1.73;;;1.63;;
5085;SDS011;4715;51.660;7.082;2022-12-29T01:39:12;1.70;;;1.60;;
5085;SDS011;4715;51.660;7.082;2022-12-29T01:41:35;1.47;;;1.23;;
5085;SDS011;4715;51.660;7.082;2022-12-29T01:43:57;1.30;;;1.20;;
5085;SDS011;4715;51.660;7.082;2022-12-29T01:46:23;1.40;;;1.30;;
5085;SDS011;4715;51.660;7.082;2022-12-29T01:48:47;1.17;;;1.17;;
5085;SDS011;4715;51.660;7.082;2022-12-29T01:51:13;1.43;;;1.33;;
5085;SDS011;4715;51.660;7.082;2022-12-29T01:53:37;1.57;;;1.40;;
5085;SDS011;4715;51.660;7.082;2022-12-29T01:56:02;1.50;;;1.40;;
5085;SDS011;4715;51.660;7.082;2022-12-29T01:58:30;1.40;;;1.10;;
5085;SDS011;4715;51.660;7.082;2022-12-29T02:00:59;2.50;;;1.23;;
5085;SDS011;4715;51.660;7.082;2022-12-29T02:03:22;1.00;;;1.00;;
5085;SDS011;4715;51.660;7.082;2022-12-29T02:05:47;1.70;;;1.60;;
5085;SDS011;4715;51.660;7.082;2022-12-29T02:08:13;0.83;;;0.83;;
5085;SDS011;4715;51.660;7.082;2022-12-29T02:10:35;1.00;;;1.00;;
5085;SDS011;4715;51.660;7.082;2022-12-29T02:13:01;1.20;;;1.20;;
5085;SDS011;4715;51.660;7.082;2022-12-29T02:15:27;1.10;;;0.90;;
5085;SDS011;4715;51.660;7.082;2022-12-29T02:18:05;1.60;;;1.07;;
5085;SDS011;4715;51.660;7.082;2022-12-29T02:20:49;0.77;;;0.77;;
5085;SDS011;4715;51.660;7.082;2022-12-29T02:23:41;1.00;;;0.90;;
5085;SDS011;4715;51.660;7.082;2022-12-29T02:26:33;0.90;;;0.90;;
5085;SDS011;4715;51.660;7.082;2022-12-29T02:32:17;0.90;;;0.90;;
5085;SDS011;4715;51.660;7.082;2022-12-29T02:34:47;1.20;;;1.10;;
5085;SDS011;4715;51.660;7.082;2022-12-29T02:37:19;0.70;;;0.70;;
5085;SDS011;4715;51.660;7.082;2022-12-29T02:39:48;3.90;;;0.90;;
5085;SDS011;4715;51.660;7.082;2022-12-29T02:42:18;1.80;;;1.10;;
5085;SDS011;4715;51.660;7.082;2022-12-29T02:44:52;0.77;;;0.77;;
5085;SDS011;4715;51.660;7.082;2022-12-29T02:47:22;1.00;;;1.00;;
5085;SDS011;4715;51.660;7.082;2022-12-29T02:49:52;0.80;;;0.80;;
5085;SDS011;4715;51.660;7.082;2022-12-29T02:52:20;1.20;;;1.00;;
5085;SDS011;4715;51.660;7.082;2022-12-29T02:54:48;1.37;;;1.00;;
5085;SDS011;4715;51.660;7.082;2022-12-29T02:57:13;1.87;;;1.20;;
5085;SDS011;4715;51.660;7.082;2022-12-29T02:59:37;2.40;;;1.00;;
5085;SDS011;4715;51.660;7.082;2022-12-29T03:02:09;1.20;;;1.10;;
5085;SDS011;4715;51.660;7.082;2022-12-29T03:08:06;1.33;;;1.00;;
5085;SDS011;4715;51.660;7.082;2022-12-29T03:10:41;1.03;;;0.93;;
5085;SDS011;4715;51.660;7.082;2022-12-29T03:13:12;1.23;;;1.13;;
5085;SDS011;4715;51.660;7.082;2022-12-29T03:16:04;1.90;;;1.00;;
5085;SDS011;4715;51.660;7.082;2022-12-29T03:18:37;1.10;;;1.10;;
5085;SDS011;4715;51.660;7.082;2022-12-29T03:21:06;2.47;;;1.20;;
5085;SDS011;4715;51.660;7.082;2022-12-29T03:23:32;2.03;;;0.97;;
5085;SDS011;4715;51.660;7.082;2022-12-29T03:25:57;1.97;;;0.87;;
5085;SDS011;4715;51.660;7.082;2022-12-29T03:28:24;1.17;;;1.13;;
5085;SDS011;4715;51.660;7.082;2022-12-29T03:30:49;1.40;;;1.17;;
5085;SDS011;4715;51.660;7.082;2022-12-29T03:33:12;1.50;;;1.40;;
5085;SDS011;4715;51.660;7.082;2022-12-29T03:35:37;1.10;;;1.10;;
5085;SDS011;4715;51.660;7.082;2022-12-29T03:38:05;1.23;;;1.13;;
5085;SDS011;4715;51.660;7.082;2022-12-29T03:40:32;1.30;;;1.20;;
5085;SDS011;4715;51.660;7.082;2022-12-29T03:42:55;2.00;;;1.57;;
5085;SDS011;4715;51.660;7.082;2022-12-29T03:45:18;1.53;;;0.90;;
5085;SDS011;4715;51.660;7.082;2022-12-29T03:47:41;2.60;;;1.10;;
5085;SDS011;4715;51.660;7.082;2022-12-29T03:50:03;1.27;;;1.27;;
5085;SDS011;4715;51.660;7.082;2022-12-29T03:52:28;1.20;;;1.10;;
5085;SDS011;4715;51.660;7.082;2022-12-29T03:54:51;8.60;;;1.43;;
5085;SDS011;4715;51.660;7.082;2022-12-29T03:57:13;6.57;;;1.70;;
5085;SDS011;4715;51.660;7.082;2022-12-29T03:59:35;1.27;;;1.13;;
5085;SDS011;4715;51.660;7.082;2022-12-29T04:01:57;1.57;;;1.47;;
5085;SDS011;4715;51.660;7.082;2022-12-29T04:04:19;2.60;;;1.53;;
5085;SDS011;4715;51.660;7.082;2022-12-29T04:06:41;3.00;;;1.50;;
5085;SDS011;4715;51.660;7.082;2022-12-29T04:09:04;2.90;;;1.60;;
5085;SDS011;4715;51.660;7.082;2022-12-29T04:11:27;1.30;;;1.20;;
5085;SDS011;4715;51.660;7.082;2022-12-29T04:13:49;1.30;;;1.20;;
5085;SDS011;4715;51.660;7.082;2022-12-29T04:16:11;1.30;;;1.20;;
5085;SDS011;4715;51.660;7.082;2022-12-29T04:18:33;1.90;;;1.30;;
5085;SDS011;4715;51.660;7.082;2022-12-29T04:20:55;1.00;;;0.90;;
5085;SDS011;4715;51.660;7.082;2022-12-29T04:23:24;1.03;;;0.90;;
5085;SDS011;4715;51.660;7.082;2022-12-29T04:25:45;1.17;;;1.07;;
5085;SDS011;4715;51.660;7.082;2022-12-29T04:28:09;6.83;;;0.90;;
5085;SDS011;4715;51.660;7.082;2022-12-29T04:30:31;0.90;;;0.90;;
5085;SDS011;4715;51.660;7.082;2022-12-29T04:32:52;0.80;;;0.80;;
5085;SDS011;4715;51.660;7.082;2022-12-29T04:35:14;1.30;;;1.00;;
5085;SDS011;4715;51.660;7.082;2022-12-29T04:37:37;1.13;;;1.03;;
5085;SDS011;4715;51.660;7.082;2022-12-29T04:39:59;2.33;;;1.00;;
5085;SDS011;4715;51.660;7.082;2022-12-29T04:42:21;1.00;;;0.87;;
5085;SDS011;4715;51.660;7.082;2022-12-29T04:44:44;1.17;;;1.07;;
5085;SDS011;4715;51.660;7.082;2022-12-29T04:47:06;0.87;;;0.87;;
5085;SDS011;4715;51.660;7.082;2022-12-29T04:49:28;2.57;;;1.10;;
5085;SDS011;4715;51.660;7.082;2022-12-29T04:51:50;1.37;;;1.00;;
5085;SDS011;4715;51.660;7.082;2022-12-29T04:54:12;2.13;;;1.97;;
5085;SDS011;4715;51.660;7.082;2022-12-29T04:56:34;1.00;;;1.00;;
5085;SDS011;4715;51.660;7.082;2022-12-29T04:58:56;1.33;;;1.00;;
5085;SDS011;4715;51.660;7.082;2022-12-29T05:01:19;0.90;;;0.90;;
5085;SDS011;4715;51.660;7.082;2022-12-29T05:03:41;2.83;;;1.00;;
5085;SDS011;4715;51.660;7.082;2022-12-29T05:06:04;1.40;;;1.03;;
5085;SDS011;4715;51.660;7.082;2022-12-29T05:08:26;2.47;;;1.00;;
5085;SDS011;4715;51.660;7.082;2022-12-29T05:10:49;1.20;;;1.10;;
5085;SDS011;4715;51.660;7.082;2022-12-29T05:13:12;1.17;;;0.90;;
5085;SDS011;4715;51.660;7.082;2022-12-29T05:15:34;2.13;;;0.87;;
5085;SDS011;4715;51.660;7.082;2022-12-29T05:17:57;3.00;;;1.03;;
5085;SDS011;4715;51.660;7.082;2022-12-29T05:20:20;0.80;;;0.80;;
5085;SDS011;4715;51.660;7.082;2022-12-29T05:22:42;4.70;;;0.97;;
5085;SDS011;4715;51.660;7.082;2022-12-29T05:25:05;0.70;;;0.67;;
5085;SDS011;4715;51.660;7.082;2022-12-29T05:27:27;1.03;;;0.80;;
5085;SDS011;4715;51.660;7.082;2022-12-29T05:29:49;1.07;;;1.07;;
5085;SDS011;4715;51.660;7.082;2022-12-29T05:32:11;4.00;;;0.70;;
5085;SDS011;4715;51.660;7.082;2022-12-29T05:34:36;3.50;;;1.00;;
5085;SDS011;4715;51.660;7.082;2022-12-29T05:36:58;1.10;;;1.00;;
5085;SDS011;4715;51.660;7.082;2022-12-29T05:39:21;2.63;;;1.03;;
5085;SDS011;4715;51.660;7.082;2022-12-29T05:41:44;0.87;;;0.80;;
5085;SDS011;4715;51.660;7.082;2022-12-29T05:44:07;2.00;;;0.90;;
5085;SDS011;4715;51.660;7.082;2022-12-29T05:46:29;1.50;;;0.80;;
5085;SDS011;4715;51.660;7.082;2022-12-29T05:48:51;2.03;;;0.90;;
5085;SDS011;4715;51.660;7.082;2022-12-29T05:51:16;0.70;;;0.70;;
5085;SDS011;4715;51.660;7.082;2022-12-29T05:53:38;0.97;;;0.97;;
5085;SDS011;4715;51.660;7.082;2022-12-29T05:56:00;1.20;;;0.87;;
5085;SDS011;4715;51.660;7.082;2022-12-29T05:58:22;0.80;;;0.80;;
5085;SDS011;4715;51.660;7.082;2022-12-29T06:00:44;3.17;;;1.20;;
5085;SDS011;4715;51.660;7.082;2022-12-29T06:03:06;3.53;;;1.20;;
5085;SDS011;4715;51.660;7.082;2022-12-29T06:05:31;1.37;;;1.30;;
5085;SDS011;4715;51.660;7.082;2022-12-29T06:07:54;1.40;;;1.30;;
5085;SDS011;4715;51.660;7.082;2022-12-29T06:10:17;2.37;;;1.33;;
5085;SDS011;4715;51.660;7.082;2022-12-29T06:12:40;1.27;;;1.17;;
5085;SDS011;4715;51.660;7.082;2022-12-29T06:15:03;2.63;;;1.13;;
5085;SDS011;4715;51.660;7.082;2022-12-29T06:17:26;3.70;;;1.33;;
5085;SDS011;4715;51.660;7.082;2022-12-29T06:19:48;4.20;;;1.17;;
5085;SDS011;4715;51.660;7.082;2022-12-29T06:22:11;1.43;;;1.10;;
5085;SDS011;4715;51.660;7.082;2022-12-29T06:24:37;3.80;;;1.40;;
5085;SDS011;4715;51.660;7.082;2022-12-29T06:27:01;2.33;;;1.10;;
5085;SDS011;4715;51.660;7.082;2022-12-29T06:29:24;3.83;;;1.73;;
5085;SDS011;4715;51.660;7.082;2022-12-29T06:31:45;6.73;;;1.30;;
5085;SDS011;4715;51.660;7.082;2022-12-29T06:34:11;2.20;;;1.20;;
5085;SDS011;4715;51.660;7.082;2022-12-29T06:36:33;1.40;;;1.17;;
5085;SDS011;4715;51.660;7.082;2022-12-29T06:38:55;3.33;;;1.97;;
5085;SDS011;4715;51.660;7.082;2022-12-29T06:41:18;1.37;;;1.00;;
5085;SDS011;4715;51.660;7.082;2022-12-29T06:43:40;1.50;;;1.40;;
5085;SDS011;4715;51.660;7.082;2022-12-29T06:46:01;2.13;;;1.00;;
5085;SDS011;4715;51.660;7.082;2022-12-29T06:48:23;0.83;;;0.83;;
5085;SDS011;4715;51.660;7.082;2022-12-29T06:50:45;1.23;;;1.13;;
5085;SDS011;4715;51.660;7.082;2022-12-29T06:53:07;2.20;;;1.10;;
5085;SDS011;4715;51.660;7.082;2022-12-29T06:55:29;1.80;;;0.90;;
5085;SDS011;4715;51.660;7.082;2022-12-29T06:57:54;6.67;;;1.60;;
5085;SDS011;4715;51.660;7.082;2022-12-29T07:00:16;2.57;;;1.40;;
5085;SDS011;4715;51.660;7.082;2022-12-29T07:02:38;3.63;;;1.20;;
5085;SDS011;4715;51.660;7.082;2022-12-29T07:05:02;2.37;;;1.77;;
5085;SDS011;4715;51.660;7.082;2022-12-29T07:07:25;2.07;;;1.20;;
5085;SDS011;4715;51.660;7.082;2022-12-29T07:09:46;2.77;;;1.53;;
5085;SDS011;4715;51.660;7.082;2022-12-29T07:12:09;1.83;;;1.37;;
5085;SDS011;4715;51.660;7.082;2022-12-29T07:14:32;1.27;;;1.17;;
5085;SDS011;4715;51.660;7.082;2022-12-29T07:16:54;1.70;;;1.20;;
5085;SDS011;4715;51.660;7.082;2022-12-29T07:19:15;4.90;;;1.30;;
5085;SDS011;4715;51.660;7.082;2022-12-29T07:21:37;1.77;;;1.20;;
5085;SDS011;4715;51.660;7.082;2022-12-29T07:23:59;2.83;;;1.10;;
5085;SDS011;4715;51.660;7.082;2022-12-29T07:26:21;1.80;;;1.20;;
5085;SDS011;4715;51.660;7.082;2022-12-29T07:28:43;2.40;;;1.43;;
5085;SDS011;4715;51.660;7.082;2022-12-29T07:31:08;3.77;;;1.97;;
5085;SDS011;4715;51.660;7.082;2022-12-29T07:33:36;1.80;;;1.10;;
5085;SDS011;4715;51.660;7.082;2022-12-29T07:35:58;3.93;;;1.50;;
5085;SDS011;4715;51.660;7.082;2022-12-29T07:38:20;2.73;;;0.97;;
5085;SDS011;4715;51.660;7.082;2022-12-29T07:40:42;3.80;;;1.57;;
5085;SDS011;4715;51.660;7.082;2022-12-29T07:43:04;2.60;;;1.10;;
5085;SDS011;4715;51.660;7.082;2022-12-29T07:45:26;2.40;;;1.23;;
5085;SDS011;4715;51.660;7.082;2022-12-29T07:47:49;1.63;;;1.53;;
5085;SDS011;4715;51.660;7.082;2022-12-29T07:50:11;2.33;;;1.37;;
5085;SDS011;4715;51.660;7.082;2022-12-29T07:52:33;9.30;;;1.43;;
5085;SDS011;4715;51.660;7.082;2022-12-29T07:54:55;7.03;;;1.50;;
5085;SDS011;4715;51.660;7.082;2022-12-29T07:57:17;3.60;;;1.70;;
5085;SDS011;4715;51.660;7.082;2022-12-29T07:59:38;3.23;;;1.20;;
5085;SDS011;4715;51.660;7.082;2022-12-29T08:02:00;5.23;;;1.60;;
5085;SDS011;4715;51.660;7.082;2022-12-29T08:04:24;4.40;;;1.33;;
5085;SDS011;4715;51.660;7.082;2022-12-29T08:06:45;3.37;;;1.43;;
5085;SDS011;4715;51.660;7.082;2022-12-29T08:09:07;1.60;;;0.90;;
5085;SDS011;4715;51.660;7.082;2022-12-29T08:11:29;2.10;;;1.30;;
5085;SDS011;4715;51.660;7.082;2022-12-29T08:13:51;4.30;;;1.30;;
5085;SDS011;4715;51.660;7.082;2022-12-29T08:16:13;1.37;;;1.27;;
5085;SDS011;4715;51.660;7.082;2022-12-29T08:18:35;2.63;;;1.10;;
5085;SDS011;4715;51.660;7.082;2022-12-29T08:21:01;4.13;;;1.57;;
5085;SDS011;4715;51.660;7.082;2022-12-29T08:23:25;1.60;;;1.20;;
5085;SDS011;4715;51.660;7.082;2022-12-29T08:25:55;5.30;;;1.70;;
5085;SDS011;4715;51.660;7.082;2022-12-29T08:28:18;3.27;;;1.70;;
5085;SDS011;4715;51.660;7.082;2022-12-29T08:30:40;3.43;;;1.30;;
5085;SDS011;4715;51.660;7.082;2022-12-29T08:33:02;5.37;;;1.93;;
5085;SDS011;4715;51.660;7.082;2022-12-29T08:35:23;6.77;;;1.77;;
5085;SDS011;4715;51.660;7.082;2022-12-29T08:37:47;6.90;;;2.10;;
5085;SDS011;4715;51.660;7.082;2022-12-29T08:40:09;2.40;;;1.37;;
5085;SDS011;4715;51.660;7.082;2022-12-29T08:42:31;3.60;;;1.93;;
5085;SDS011;4715;51.660;7.082;2022-12-29T08:44:53;6.83;;;2.37;;
5085;SDS011;4715;51.660;7.082;2022-12-29T08:47:15;5.33;;;2.30;;
5085;SDS011;4715;51.660;7.082;2022-12-29T08:49:37;6.67;;;2.40;;
5085;SDS011;4715;51.660;7.082;2022-12-29T08:51:59;4.53;;;1.37;;
5085;SDS011;4715;51.660;7.082;2022-12-29T08:54:22;4.07;;;1.90;;
5085;SDS011;4715;51.660;7.082;2022-12-29T08:56:44;3.50;;;2.07;;
5085;SDS011;4715;51.660;7.082;2022-12-29T08:59:06;5.00;;;1.60;;
5085;SDS011;4715;51.660;7.082;2022-12-29T09:01:28;3.93;;;1.70;;
5085;SDS011;4715;51.660;7.082;2022-12-29T09:03:51;2.50;;;1.47;;
5085;SDS011;4715;51.660;7.082;2022-12-29T09:06:14;3.00;;;1.70;;
5085;SDS011;4715;51.660;7.082;2022-12-29T09:08:36;5.67;;;1.70;;
5085;SDS011;4715;51.660;7.082;2022-12-29T09:11:06;2.43;;;1.50;;
5085;SDS011;4715;51.660;7.082;2022-12-29T09:13:30;7.93;;;3.90;;
5085;SDS011;4715;51.660;7.082;2022-12-29T09:15:57;5.10;;;1.73;;
5085;SDS011;4715;51.660;7.082;2022-12-29T09:18:19;2.40;;;1.30;;
5085;SDS011;4715;51.660;7.082;2022-12-29T09:20:41;6.40;;;1.83;;
5085;SDS011;4715;51.660;7.082;2022-12-29T09:23:03;7.10;;;2.83;;
5085;SDS011;4715;51.660;7.082;2022-12-29T09:25:26;5.93;;;1.60;;
5085;SDS011;4715;51.660;7.082;2022-12-29T09:27:49;2.67;;;1.70;;
5085;SDS011;4715;51.660;7.082;2022-12-29T09:30:12;4.30;;;1.77;;
5085;SDS011;4715;51.660;7.082;2022-12-29T09:32:34;3.80;;;1.60;;
5085;SDS011;4715;51.660;7.082;2022-12-29T09:34:56;1.30;;;1.00;;
5085;SDS011;4715;51.660;7.082;2022-12-29T09:37:18;2.60;;;1.30;;
5085;SDS011;4715;51.660;7.082;2022-12-29T09:39:41;2.80;;;1.30;;
5085;SDS011;4715;51.660;7.082;2022-12-29T09:42:04;4.60;;;2.60;;
5085;SDS011;4715;51.660;7.082;2022-12-29T09:44:36;3.30;;;1.60;;
5085;SDS011;4715;51.660;7.082;2022-12-29T09:47:13;7.20;;;2.00;;
5085;SDS011;4715;51.660;7.082;2022-12-29T09:49:39;2.83;;;1.57;;
5085;SDS011;4715;51.660;7.082;2022-12-29T09:52:08;1.20;;;0.97;;
5085;SDS011;4715;51.660;7.082;2022-12-29T09:54:41;5.67;;;1.97;;
5085;SDS011;4715;51.660;7.082;2022-12-29T09:57:10;4.03;;;1.30;;
5085;SDS011;4715;51.660;7.082;2022-12-29T09:59:41;3.90;;;1.40;;
5085;SDS011;4715;51.660;7.082;2022-12-29T10:02:08;8.77;;;2.37;;
5085;SDS011;4715;51.660;7.082;2022-12-29T10:04:53;2.50;;;1.70;;
5085;SDS011;4715;51.660;7.082;2022-12-29T10:07:17;4.47;;;1.50;;
5085;SDS011;4715;51.660;7.082;2022-12-29T10:09:48;4.60;;;1.60;;
5085;SDS011;4715;51.660;7.082;2022-12-29T10:12:44;4.57;;;1.90;;
5085;SDS011;4715;51.660;7.082;2022-12-29T10:15:22;2.90;;;1.40;;
5085;SDS011;4715;51.660;7.082;2022-12-29T10:18:01;3.03;;;1.13;;
5085;SDS011;4715;51.660;7.082;2022-12-29T10:20:33;4.10;;;1.97;;
5085;SDS011;4715;51.660;7.082;2022-12-29T10:23:12;7.57;;;1.87;;
5085;SDS011;4715;51.660;7.082;2022-12-29T10:25:43;7.10;;;1.73;;
5085;SDS011;4715;51.660;7.082;2022-12-29T10:28:05;2.70;;;1.90;;
5085;SDS011;4715;51.660;7.082;2022-12-29T10:30:38;6.93;;;2.20;;
5085;SDS011;4715;51.660;7.082;2022-12-29T10:33:01;2.53;;;1.90;;
5085;SDS011;4715;51.660;7.082;2022-12-29T10:35:29;7.10;;;2.07;;
5085;SDS011;4715;51.660;7.082;2022-12-29T10:37:56;1.87;;;1.50;;
5085;SDS011;4715;51.660;7.082;2022-12-29T10:40:24;8.33;;;1.80;;
5085;SDS011;4715;51.660;7.082;2022-12-29T10:42:50;2.93;;;1.73;;
5085;SDS011;4715;51.660;7.082;2022-12-29T10:45:14;4.80;;;1.63;;
5085;SDS011;4715;51.660;7.082;2022-12-29T10:47:41;4.77;;;1.90;;
5085;SDS011;4715;51.660;7.082;2022-12-29T10:50:11;3.10;;;1.70;;
5085;SDS011;4715;51.660;7.082;2022-12-29T10:52:33;5.47;;;2.17;;
5085;SDS011;4715;51.660;7.082;2022-12-29T10:55:00;7.47;;;1.83;;
5085;SDS011;4715;51.660;7.082;2022-12-29T10:57:26;1.30;;;1.10;;
5085;SDS011;4715;51.660;7.082;2022-12-29T10:59:53;3.53;;;1.60;;
5085;SDS011;4715;51.660;7.082;2022-12-29T11:02:21;6.23;;;1.50;;
5085;SDS011;4715;51.660;7.082;2022-12-29T11:05:02;3.53;;;1.87;;
5085;SDS011;4715;51.660;7.082;2022-12-29T11:07:29;4.50;;;1.83;;
5085;SDS011;4715;51.660;7.082;2022-12-29T11:09:52;8.70;;;1.90;;
5085;SDS011;4715;51.660;7.082;2022-12-29T11:12:21;4.17;;;1.70;;
5085;SDS011;4715;51.660;7.082;2022-12-29T11:14:45;2.13;;;1.30;;
5085;SDS011;4715;51.660;7.082;2022-12-29T11:17:11;3.70;;;1.40;;
5085;SDS011;4715;51.660;7.082;2022-12-29T11:19:36;9.70;;;3.00;;
5085;SDS011;4715;51.660;7.082;2022-12-29T11:22:11;5.27;;;1.43;;
5085;SDS011;4715;51.660;7.082;2022-12-29T11:24:36;4.70;;;2.03;;
5085;SDS011;4715;51.660;7.082;2022-12-29T11:27:08;3.23;;;1.50;;
5085;SDS011;4715;51.660;7.082;2022-12-29T11:29:37;4.90;;;1.80;;
5085;SDS011;4715;51.660;7.082;2022-12-29T11:32:05;5.07;;;1.93;;
5085;SDS011;4715;51.660;7.082;2022-12-29T11:34:33;10.80;;;1.60;;
5085;SDS011;4715;51.660;7.082;2022-12-29T11:36:58;5.63;;;1.93;;
5085;SDS011;4715;51.660;7.082;2022-12-29T11:39:29;4.63;;;1.40;;
5085;SDS011;4715;51.660;7.082;2022-12-29T11:41:53;4.67;;;2.03;;
5085;SDS011;4715;51.660;7.082;2022-12-29T11:44:17;6.07;;;1.73;;
5085;SDS011;4715;51.660;7.082;2022-12-29T11:46:39;7.47;;;2.47;;
5085;SDS011;4715;51.660;7.082;2022-12-29T11:49:10;7.03;;;1.83;;
5085;SDS011;4715;51.660;7.082;2022-12-29T11:51:37;4.50;;;1.90;;
5085;SDS011;4715;51.660;7.082;2022-12-29T11:54:03;6.47;;;2.80;;
5085;SDS011;4715;51.660;7.082;2022-12-29T11:56:34;8.10;;;2.40;;
5085;SDS011;4715;51.660;7.082;2022-12-29T11:59:06;5.20;;;1.50;;
5085;SDS011;4715;51.660;7.082;2022-12-29T12:01:46;7.73;;;2.07;;
5085;SDS011;4715;51.660;7.082;2022-12-29T12:04:10;5.73;;;2.03;;
5085;SDS011;4715;51.660;7.082;2022-12-29T12:06:36;6.53;;;1.73;;
5085;SDS011;4715;51.660;7.082;2022-12-29T12:09:08;5.90;;;2.17;;
5085;SDS011;4715;51.660;7.082;2022-12-29T12:11:38;6.80;;;2.40;;
5085;SDS011;4715;51.660;7.082;2022-12-29T12:14:06;9.30;;;2.70;;
5085;SDS011;4715;51.660;7.082;2022-12-29T12:16:37;4.90;;;1.60;;
5085;SDS011;4715;51.660;7.082;2022-12-29T12:19:03;4.73;;;1.83;;
5085;SDS011;4715;51.660;7.082;2022-12-29T12:21:31;3.63;;;1.47;;
5085;SDS011;4715;51.660;7.082;2022-12-29T12:26:53;9.43;;;2.00;;
5085;SDS011;4715;51.660;7.082;2022-12-29T12:29:22;5.33;;;1.60;;
5085;SDS011;4715;51.660;7.082;2022-12-29T12:31:49;4.30;;;1.73;;
5085;SDS011;4715;51.660;7.082;2022-12-29T12:34:17;4.60;;;1.40;;
5085;SDS011;4715;51.660;7.082;2022-12-29T12:36:53;4.33;;;1.77;;
5085;SDS011;4715;51.660;7.082;2022-12-29T12:39:26;7.90;;;2.00;;
5085;SDS011;4715;51.660;7.082;2022-12-29T12:42:00;5.87;;;1.77;;
5085;SDS011;4715;51.660;7.082;2022-12-29T12:44:35;9.80;;;2.33;;
5085;SDS011;4715;51.660;7.082;2022-12-29T12:47:06;6.13;;;1.90;;
5085;SDS011;4715;51.660;7.082;2022-12-29T12:49:56;3.53;;;2.27;;
5085;SDS011;4715;51.660;7.082;2022-12-29T12:52:33;10.60;;;2.53;;
5085;SDS011;4715;51.660;7.082;2022-12-29T12:55:12;7.27;;;2.10;;
5085;SDS011;4715;51.660;7.082;2022-12-29T12:57:54;4.23;;;2.27;;
5085;SDS011;4715;51.660;7.082;2022-12-29T13:00:19;5.70;;;1.60;;
5085;SDS011;4715;51.660;7.082;2022-12-29T13:02:46;4.80;;;2.50;;
5085;SDS011;4715;51.660;7.082;2022-12-29T13:05:26;6.07;;;2.27;;
5085;SDS011;4715;51.660;7.082;2022-12-29T13:08:21;2.77;;;2.40;;
5085;SDS011;4715;51.660;7.082;2022-12-29T13:11:10;8.80;;;2.50;;
5085;SDS011;4715;51.660;7.082;2022-12-29T13:13:50;9.23;;;2.40;;
5085;SDS011;4715;51.660;7.082;2022-12-29T13:16:32;6.40;;;2.23;;
5085;SDS011;4715;51.660;7.082;2022-12-29T13:19:03;8.37;;;2.13;;
5085;SDS011;4715;51.660;7.082;2022-12-29T13:21:34;3.20;;;2.23;;
5085;SDS011;4715;51.660;7.082;2022-12-29T13:24:13;4.70;;;2.27;;
5085;SDS011;4715;51.660;7.082;2022-12-29T13:26:42;5.03;;;2.33;;
5085;SDS011;4715;51.660;7.082;2022-12-29T13:29:12;8.60;;;2.33;;
5085;SDS011;4715;51.660;7.082;2022-12-29T13:31:41;7.80;;;2.07;;
5085;SDS011;4715;51.660;7.082;2022-12-29T13:34:13;2.23;;;1.83;;
5085;SDS011;4715;51.660;7.082;2022-12-29T13:36:44;10.90;;;2.27;;
5085;SDS011;4715;51.660;7.082;2022-12-29T13:39:11;4.73;;;2.20;;
5085;SDS011;4715;51.660;7.082;2022-12-29T13:41:37;4.60;;;1.73;;
5085;SDS011;4715;51.660;7.082;2022-12-29T13:44:04;10.37;;;2.57;;
5085;SDS011;4715;51.660;7.082;2022-12-29T13:46:33;6.03;;;1.63;;
5085;SDS011;4715;51.660;7.082;2022-12-29T13:48:59;8.63;;;3.17;;
5085;SDS011;4715;51.660;7.082;2022-12-29T13:51:26;10.10;;;2.17;;
5085;SDS011;4715;51.660;7.082;2022-12-29T13:53:56;4.70;;;2.10;;
5085;SDS011;4715;51.660;7.082;2022-12-29T13:56:25;7.50;;;1.83;;
5085;SDS011;4715;51.660;7.082;2022-12-29T13:58:56;4.93;;;1.70;;
5085;SDS011;4715;51.660;7.082;2022-12-29T14:01:27;6.93;;;2.07;;
5085;SDS011;4715;51.660;7.082;2022-12-29T14:03:56;2.33;;;1.87;;
5085;SDS011;4715;51.660;7.082;2022-12-29T14:06:20;2.77;;;1.90;;
5085;SDS011;4715;51.660;7.082;2022-12-29T14:08:44;4.13;;;1.83;;
5085;SDS011;4715;51.660;7.082;2022-12-29T14:11:07;7.97;;;2.00;;
5085;SDS011;4715;51.660;7.082;2022-12-29T14:13:31;6.30;;;1.90;;
5085;SDS011;4715;51.660;7.082;2022-12-29T14:15:58;4.73;;;1.70;;
5085;SDS011;4715;51.660;7.082;2022-12-29T14:18:22;5.10;;;2.10;;
5085;SDS011;4715;51.660;7.082;2022-12-29T14:20:49;2.40;;;1.40;;
5085;SDS011;4715;51.660;7.082;2022-12-29T14:23:15;5.73;;;2.20;;
5085;SDS011;4715;51.660;7.082;2022-12-29T14:25:51;4.77;;;2.27;;
5085;SDS011;4715;51.660;7.082;2022-12-29T14:28:20;11.47;;;2.10;;
5085;SDS011;4715;51.660;7.082;2022-12-29T14:30:51;4.57;;;3.13;;
5085;SDS011;4715;51.660;7.082;2022-12-29T14:33:14;3.57;;;1.93;;
5085;SDS011;4715;51.660;7.082;2022-12-29T14:35:38;6.63;;;2.40;;
5085;SDS011;4715;51.660;7.082;2022-12-29T14:40:52;3.67;;;1.63;;
5085;SDS011;4715;51.660;7.082;2022-12-29T14:43:53;3.83;;;2.00;;
5085;SDS011;4715;51.660;7.082;2022-12-29T14:46:18;5.77;;;2.63;;
5085;SDS011;4715;51.660;7.082;2022-12-29T14:48:41;6.43;;;2.40;;
5085;SDS011;4715;51.660;7.082;2022-12-29T14:51:21;7.20;;;2.73;;
5085;SDS011;4715;51.660;7.082;2022-12-29T14:53:54;8.13;;;2.70;;
5085;SDS011;4715;51.660;7.082;2022-12-29T14:56:16;6.50;;;2.10;;
5085;SDS011;4715;51.660;7.082;2022-12-29T14:58:43;4.97;;;2.30;;
5085;SDS011;4715;51.660;7.082;2022-12-29T15:01:18;6.23;;;1.83;;
5085;SDS011;4715;51.660;7.082;2022-12-29T15:03:46;4.73;;;2.10;;
5085;SDS011;4715;51.660;7.082;2022-12-29T15:06:11;7.10;;;2.70;;
5085;SDS011;4715;51.660;7.082;2022-12-29T15:08:37;6.90;;;2.00;;
5085;SDS011;4715;51.660;7.082;2022-12-29T15:11:03;7.20;;;2.13;;
5085;SDS011;4715;51.660;7.082;2022-12-29T15:13:33;3.80;;;2.17;;
5085;SDS011;4715;51.660;7.082;2022-12-29T15:15:56;11.40;;;1.87;;
5085;SDS011;4715;51.660;7.082;2022-12-29T15:18:22;7.50;;;1.73;;
5085;SDS011;4715;51.660;7.082;2022-12-29T15:20:45;4.10;;;1.60;;
5085;SDS011;4715;51.660;7.082;2022-12-29T15:23:12;3.33;;;1.57;;